createdAt,value
2017-12-26T00:00:35.132Z,99358
2017-12-26T00:01:35.057Z,99363
2017-12-26T00:02:36.194Z,99361
2017-12-26T00:03:36.310Z,99349
2017-12-26T00:04:35.338Z,99347
2017-12-26T00:05:35.263Z,99334
2017-12-26T00:06:36.349Z,99341
2017-12-26T00:07:36.324Z,99339
2017-12-26T00:08:36.448Z,99336
2017-12-26T00:09:35.409Z,99333
2017-12-26T00:10:35.510Z,99334
2017-12-26T00:11:35.493Z,99334
2017-12-26T00:12:36.610Z,99335
2017-12-26T00:13:36.627Z,99332
2017-12-26T00:14:35.685Z,99329
2017-12-26T00:15:36.709Z,99334
2017-12-26T00:16:35.766Z,99325
2017-12-26T00:17:36.818Z,99329
2017-12-26T00:18:35.873Z,99323
2017-12-26T00:19:35.943Z,99324
2017-12-26T00:20:35.904Z,99323
2017-12-26T00:21:35.994Z,99320
2017-12-26T00:22:35.954Z,99321
2017-12-26T00:23:37.086Z,99314
2017-12-26T00:24:37.160Z,99316
2017-12-26T00:25:37.234Z,99312
2017-12-26T00:26:36.409Z,99304
2017-12-26T00:27:37.370Z,99302
2017-12-26T00:28:37.401Z,99295
2017-12-26T00:29:37.306Z,99286
2017-12-26T00:30:36.408Z,99295
2017-12-26T00:31:37.566Z,99295
2017-12-26T00:32:36.523Z,99291
2017-12-26T00:33:37.538Z,99279
2017-12-26T00:34:36.635Z,99287
2017-12-26T00:35:37.789Z,99275
2017-12-26T00:36:36.693Z,99277
2017-12-26T00:37:36.718Z,99274
2017-12-26T00:38:36.763Z,99270
2017-12-26T00:39:37.925Z,99269
2017-12-26T00:40:36.870Z,99266
2017-12-26T00:41:37.843Z,99256
2017-12-26T00:42:37.956Z,99253
2017-12-26T00:43:37.880Z,99250
2017-12-26T00:44:37.000Z,99240
2017-12-26T00:45:37.077Z,99246
2017-12-26T00:46:37.254Z,99239
2017-12-26T00:47:37.262Z,99233
2017-12-26T00:48:37.332Z,99232
2017-12-26T00:49:37.381Z,99227
2017-12-26T00:50:37.394Z,99216
2017-12-26T00:51:37.571Z,99228
2017-12-26T00:52:38.577Z,99224
2017-12-26T00:53:37.581Z,99219
2017-12-26T00:54:37.628Z,99216
2017-12-26T00:55:37.738Z,99218
2017-12-26T00:56:38.837Z,99202
2017-12-26T00:57:37.802Z,99206
2017-12-26T00:58:37.868Z,99203
2017-12-26T00:59:37.965Z,99206
2017-12-26T01:00:38.189Z,99198
2017-12-26T01:01:39.039Z,99207
2017-12-26T01:02:39.191Z,99203
2017-12-26T01:03:38.197Z,99208
2017-12-26T01:04:38.190Z,99196
2017-12-26T01:05:38.331Z,99203
2017-12-26T01:06:38.337Z,99195
2017-12-26T01:07:39.251Z,99193
2017-12-26T01:08:39.331Z,99202
2017-12-26T01:09:38.433Z,99198
2017-12-26T01:10:39.414Z,99193
2017-12-26T01:11:38.597Z,99186
2017-12-26T01:12:38.645Z,99177
2017-12-26T01:13:39.677Z,99162
2017-12-26T01:14:38.702Z,99167
2017-12-26T01:15:38.691Z,99158
2017-12-26T01:16:38.717Z,99153
2017-12-26T01:17:39.735Z,99143
2017-12-26T01:18:38.842Z,99145
2017-12-26T01:19:38.910Z,99140
2017-12-26T01:20:40.014Z,99133
2017-12-26T01:21:40.079Z,99133
2017-12-26T01:22:39.115Z,99118
2017-12-26T01:23:40.139Z,99126
2017-12-26T01:24:39.123Z,99125
2017-12-26T01:25:39.154Z,99120
2017-12-26T01:26:40.305Z,99120
2017-12-26T01:27:40.251Z,99112
2017-12-26T01:28:39.457Z,99108
2017-12-26T01:29:39.385Z,99110
2017-12-26T01:30:40.583Z,99103
2017-12-26T01:31:39.496Z,99103
2017-12-26T01:32:40.586Z,99104
2017-12-26T01:33:39.714Z,99092
2017-12-26T01:34:39.641Z,99099
2017-12-26T01:35:39.736Z,99095
2017-12-26T01:36:39.744Z,99095
2017-12-26T01:37:39.930Z,99095
2017-12-26T01:38:39.973Z,99076
2017-12-26T01:39:39.925Z,99081
2017-12-26T01:40:39.972Z,99087
2017-12-26T01:41:40.035Z,99086
2017-12-26T01:42:41.129Z,99090
2017-12-26T01:43:40.097Z,99088
2017-12-26T01:44:40.320Z,99079
2017-12-26T01:45:40.251Z,99077
2017-12-26T01:46:40.380Z,99075
2017-12-26T01:47:40.250Z,99074
2017-12-26T01:48:40.425Z,99077
2017-12-26T01:49:41.474Z,99081
2017-12-26T01:50:40.506Z,99080
2017-12-26T01:51:41.525Z,99069
2017-12-26T01:52:40.525Z,99069
2017-12-26T01:53:40.617Z,99072
2017-12-26T01:54:40.624Z,99078
2017-12-26T01:55:41.671Z,99077
2017-12-26T01:56:41.846Z,99079
2017-12-26T01:57:41.955Z,99081
2017-12-26T01:58:42.039Z,99079
2017-12-26T01:59:41.018Z,99076
2017-12-26T02:00:41.113Z,99073
2017-12-26T02:01:42.273Z,99069
2017-12-26T02:02:41.314Z,99075
2017-12-26T02:03:42.388Z,99064
2017-12-26T02:04:41.340Z,99060
2017-12-26T02:05:41.428Z,99061
2017-12-26T02:06:41.470Z,99053
2017-12-26T02:07:42.605Z,99053
2017-12-26T02:08:42.549Z,99049
2017-12-26T02:09:41.698Z,99043
2017-12-26T02:10:41.658Z,99049
2017-12-26T02:11:41.802Z,99043
2017-12-26T02:13:42.872Z,99038
2017-12-26T02:14:41.964Z,99041
2017-12-26T02:15:42.935Z,99034
2017-12-26T02:16:43.025Z,99033
2017-12-26T02:17:42.091Z,99030
2017-12-26T02:18:42.097Z,99029
2017-12-26T02:19:42.172Z,99030
2017-12-26T02:20:43.240Z,99024
2017-12-26T02:21:42.284Z,99017
2017-12-26T02:22:42.233Z,99026
2017-12-26T02:23:43.298Z,99027
2017-12-26T02:24:42.418Z,99017
2017-12-26T02:25:43.456Z,99001
2017-12-26T02:26:43.404Z,99006
2017-12-26T02:27:43.525Z,99006
2017-12-26T02:28:43.606Z,98999
2017-12-26T02:29:43.657Z,98998
2017-12-26T02:30:42.604Z,99000
2017-12-26T02:31:42.770Z,99002
2017-12-26T02:32:43.771Z,98994
2017-12-26T02:33:43.671Z,99000
2017-12-26T02:34:43.824Z,98984
2017-12-26T02:35:43.795Z,98980
2017-12-26T02:36:42.905Z,98987
2017-12-26T02:37:43.924Z,98981
2017-12-26T02:38:43.997Z,98983
2017-12-26T02:39:43.051Z,98987
2017-12-26T02:40:44.153Z,98980
2017-12-26T02:41:43.173Z,98975
2017-12-26T02:42:44.301Z,98981
2017-12-26T02:43:43.302Z,98977
2017-12-26T02:44:44.353Z,98978
2017-12-26T02:45:43.432Z,98971
2017-12-26T02:46:43.495Z,98976
2017-12-26T02:47:43.567Z,98974
2017-12-26T02:48:43.658Z,98973
2017-12-26T02:49:43.683Z,98965
2017-12-26T02:50:43.868Z,98961
2017-12-26T02:51:43.780Z,98957
2017-12-26T02:52:43.779Z,98957
2017-12-26T02:53:43.943Z,98951
2017-12-26T02:54:44.915Z,98951
2017-12-26T02:55:43.921Z,98953
2017-12-26T02:56:45.011Z,98952
2017-12-26T02:57:44.126Z,98951
2017-12-26T02:58:45.044Z,98944
2017-12-26T02:59:44.065Z,98944
2017-12-26T03:00:45.134Z,98938
2017-12-26T03:01:44.336Z,98934
2017-12-26T03:02:44.293Z,98934
2017-12-26T03:03:44.327Z,98927
2017-12-26T03:04:44.469Z,98936
2017-12-26T03:05:44.364Z,98922
2017-12-26T03:06:44.465Z,98921
2017-12-26T03:07:45.453Z,98921
2017-12-26T03:08:45.578Z,98915
2017-12-26T03:09:44.583Z,98924
2017-12-26T03:10:45.636Z,98904
2017-12-26T03:11:44.772Z,98917
2017-12-26T03:12:44.738Z,98914
2017-12-26T03:13:44.811Z,98909
2017-12-26T03:14:44.829Z,98911
2017-12-26T03:15:44.885Z,98907
2017-12-26T03:16:45.003Z,98906
2017-12-26T03:17:44.975Z,98904
2017-12-26T03:18:44.960Z,98896
2017-12-26T03:19:45.027Z,98913
2017-12-26T03:20:45.162Z,98896
2017-12-26T03:21:45.187Z,98893
2017-12-26T03:22:45.258Z,98904
2017-12-26T03:23:46.288Z,98887
2017-12-26T03:24:46.258Z,98895
2017-12-26T03:25:45.468Z,98888
2017-12-26T03:26:45.506Z,98877
2017-12-26T03:27:45.485Z,98878
2017-12-26T03:28:46.502Z,98887
2017-12-26T03:29:45.651Z,98883
2017-12-26T03:30:45.653Z,98869
2017-12-26T03:31:46.765Z,98865
2017-12-26T03:32:46.735Z,98867
2017-12-26T03:33:45.824Z,98860
2017-12-26T03:34:46.930Z,98866
2017-12-26T03:35:45.890Z,98861
2017-12-26T03:36:45.973Z,98861
2017-12-26T03:37:47.002Z,98841
2017-12-26T03:38:47.076Z,98848
2017-12-26T03:39:47.283Z,98833
2017-12-26T03:40:47.295Z,98849
2017-12-26T03:41:47.379Z,98840
2017-12-26T03:42:46.425Z,98843
2017-12-26T03:43:46.524Z,98836
2017-12-26T03:44:47.524Z,98827
2017-12-26T03:45:46.702Z,98826
2017-12-26T03:46:47.706Z,98815
2017-12-26T03:47:46.677Z,98829
2017-12-26T03:48:46.827Z,98825
2017-12-26T03:49:46.820Z,98816
2017-12-26T03:50:47.881Z,98808
2017-12-26T03:51:46.914Z,98819
2017-12-26T03:52:46.977Z,98819
2017-12-26T03:53:46.956Z,98812
2017-12-26T03:54:46.936Z,98808
2017-12-26T03:55:47.115Z,98802
2017-12-26T03:56:48.022Z,98804
2017-12-26T03:57:47.167Z,98803
2017-12-26T03:58:47.218Z,98806
2017-12-26T03:59:47.327Z,98806
2017-12-26T04:00:47.303Z,98789
2017-12-26T04:01:47.353Z,98781
2017-12-26T04:02:47.343Z,98775
2017-12-26T04:03:47.415Z,98792
2017-12-26T04:04:47.526Z,98778
2017-12-26T04:05:47.579Z,98787
2017-12-26T04:06:47.468Z,98786
2017-12-26T04:07:47.601Z,98781
2017-12-26T04:08:48.525Z,98765
2017-12-26T04:09:48.660Z,98771
2017-12-26T04:10:47.750Z,98771
2017-12-26T04:11:47.714Z,98765
2017-12-26T04:12:48.687Z,98761
2017-12-26T04:13:47.898Z,98764
2017-12-26T04:14:47.929Z,98764
2017-12-26T04:15:47.930Z,98767
2017-12-26T04:16:48.998Z,98766
2017-12-26T04:17:48.087Z,98765
2017-12-26T04:18:48.050Z,98765
2017-12-26T04:19:48.201Z,98758
2017-12-26T04:20:48.304Z,98762
2017-12-26T04:21:48.324Z,98762
2017-12-26T04:22:49.446Z,98758
2017-12-26T04:23:48.405Z,98753
2017-12-26T04:24:49.568Z,98756
2017-12-26T04:25:49.542Z,98749
2017-12-26T04:26:49.711Z,98757
2017-12-26T04:27:48.720Z,98751
2017-12-26T04:28:49.848Z,98745
2017-12-26T04:29:48.878Z,98750
2017-12-26T04:30:48.970Z,98739
2017-12-26T04:31:49.185Z,98747
2017-12-26T04:32:49.108Z,98743
2017-12-26T04:33:50.240Z,98744
2017-12-26T04:34:50.341Z,98744
2017-12-26T04:35:49.413Z,98746
2017-12-26T04:36:49.384Z,98744
2017-12-26T04:37:50.307Z,98737
2017-12-26T04:38:49.444Z,98737
2017-12-26T04:39:50.541Z,98722
2017-12-26T04:40:49.512Z,98733
2017-12-26T04:41:49.692Z,98725
2017-12-26T04:42:49.742Z,98736
2017-12-26T04:43:50.741Z,98732
2017-12-26T04:44:49.668Z,98726
2017-12-26T04:45:49.727Z,98724
2017-12-26T04:46:49.763Z,98726
2017-12-26T04:47:49.871Z,98720
2017-12-26T04:48:49.822Z,98708
2017-12-26T04:49:50.922Z,98716
2017-12-26T04:50:51.026Z,98711
2017-12-26T04:51:49.964Z,98716
2017-12-26T04:52:50.931Z,98704
2017-12-26T04:53:50.065Z,98712
2017-12-26T04:54:51.137Z,98715
2017-12-26T04:55:51.041Z,98714
2017-12-26T04:56:50.263Z,98705
2017-12-26T04:57:50.156Z,98697
2017-12-26T04:58:50.302Z,98693
2017-12-26T04:59:51.326Z,98704
2017-12-26T05:00:50.424Z,98698
2017-12-26T05:01:51.320Z,98693
2017-12-26T05:02:50.384Z,98687
2017-12-26T05:03:51.507Z,98694
2017-12-26T05:04:50.515Z,98688
2017-12-26T05:05:51.671Z,98685
2017-12-26T05:06:50.618Z,98677
2017-12-26T05:07:51.640Z,98671
2017-12-26T05:08:51.756Z,98669
2017-12-26T05:09:50.825Z,98675
2017-12-26T05:10:50.825Z,98671
2017-12-26T05:11:50.864Z,98663
2017-12-26T05:12:50.891Z,98668
2017-12-26T05:13:50.981Z,98658
2017-12-26T05:14:51.999Z,98679
2017-12-26T05:15:51.194Z,98661
2017-12-26T05:16:52.189Z,98658
2017-12-26T05:17:51.136Z,98647
2017-12-26T05:18:51.321Z,98643
2017-12-26T05:19:52.363Z,98658
2017-12-26T05:20:52.423Z,98663
2017-12-26T05:21:51.387Z,98658
2017-12-26T05:22:52.429Z,98633
2017-12-26T05:23:51.576Z,98649
2017-12-26T05:24:51.587Z,98645
2017-12-26T05:25:51.706Z,98652
2017-12-26T05:26:51.653Z,98642
2017-12-26T05:27:52.794Z,98657
2017-12-26T05:28:51.819Z,98648
2017-12-26T05:29:52.804Z,98643
2017-12-26T05:30:51.750Z,98629
2017-12-26T05:31:52.755Z,98636
2017-12-26T05:32:52.876Z,98626
2017-12-26T05:33:51.875Z,98623
2017-12-26T05:34:51.954Z,98628
2017-12-26T05:35:52.135Z,98627
2017-12-26T05:36:53.165Z,98634
2017-12-26T05:37:53.182Z,98632
2017-12-26T05:38:52.224Z,98633
2017-12-26T05:39:52.144Z,98641
2017-12-26T05:40:53.131Z,98630
2017-12-26T05:41:52.278Z,98636
2017-12-26T05:42:52.216Z,98613
2017-12-26T05:43:53.318Z,98628
2017-12-26T05:44:52.310Z,98621
2017-12-26T05:45:52.458Z,98625
2017-12-26T05:46:53.538Z,98635
2017-12-26T05:47:52.588Z,98628
2017-12-26T05:48:52.523Z,98630
2017-12-26T05:49:52.635Z,98619
2017-12-26T05:50:53.612Z,98626
2017-12-26T05:51:52.722Z,98624
2017-12-26T05:52:52.833Z,98622
2017-12-26T05:53:52.800Z,98622
2017-12-26T05:54:53.021Z,98612
2017-12-26T05:55:53.041Z,98623
2017-12-26T05:56:53.014Z,98617
2017-12-26T05:57:53.093Z,98621
2017-12-26T05:58:54.214Z,98609
2017-12-26T05:59:54.283Z,98607
2017-12-26T06:00:54.310Z,98615
2017-12-26T06:01:54.211Z,98604
2017-12-26T06:02:53.419Z,98616
2017-12-26T06:03:53.405Z,98611
2017-12-26T06:04:54.476Z,98591
2017-12-26T06:05:53.399Z,98601
2017-12-26T06:06:54.434Z,98603
2017-12-26T06:07:54.461Z,98599
2017-12-26T06:08:53.587Z,98597
2017-12-26T06:09:53.645Z,98592
2017-12-26T06:10:53.602Z,98599
2017-12-26T06:11:54.617Z,98603
2017-12-26T06:12:54.694Z,98602
2017-12-26T06:13:53.894Z,98625
2017-12-26T06:14:54.867Z,98620
2017-12-26T06:15:53.955Z,98618
2017-12-26T06:16:54.890Z,98611
2017-12-26T06:17:53.996Z,98612
2017-12-26T06:18:55.022Z,98606
2017-12-26T06:19:54.215Z,98611
2017-12-26T06:20:54.142Z,98606
2017-12-26T06:21:55.265Z,98615
2017-12-26T06:22:54.192Z,98617
2017-12-26T06:23:54.218Z,98620
2017-12-26T06:24:54.411Z,98613
2017-12-26T06:25:54.447Z,98612
2017-12-26T06:26:54.325Z,98618
2017-12-26T06:27:55.313Z,98609
2017-12-26T06:28:54.334Z,98618
2017-12-26T06:29:55.484Z,98609
2017-12-26T06:30:54.537Z,98613
2017-12-26T06:31:55.455Z,98611
2017-12-26T06:32:54.592Z,98600
2017-12-26T06:33:54.580Z,98607
2017-12-26T06:34:55.748Z,98617
2017-12-26T06:35:54.702Z,98612
2017-12-26T06:36:55.747Z,98632
2017-12-26T06:37:54.876Z,98623
2017-12-26T06:38:54.994Z,98623
2017-12-26T06:39:55.883Z,98627
2017-12-26T06:40:55.075Z,98627
2017-12-26T06:41:55.000Z,98625
2017-12-26T06:42:56.148Z,98635
2017-12-26T06:43:55.179Z,98635
2017-12-26T06:44:55.255Z,98617
2017-12-26T06:45:56.241Z,98622
2017-12-26T06:46:55.306Z,98634
2017-12-26T06:47:55.411Z,98645
2017-12-26T06:48:56.339Z,98648
2017-12-26T06:49:56.477Z,98651
2017-12-26T06:50:55.476Z,98647
2017-12-26T06:51:55.560Z,98643
2017-12-26T06:52:56.648Z,98655
2017-12-26T06:53:55.748Z,98646
2017-12-26T06:54:56.668Z,98652
2017-12-26T06:55:56.845Z,98656
2017-12-26T06:56:55.959Z,98649
2017-12-26T06:57:56.007Z,98657
2017-12-26T06:58:55.892Z,98669
2017-12-26T06:59:55.966Z,98660
2017-12-26T07:00:57.066Z,98663
2017-12-26T07:01:57.167Z,98662
2017-12-26T07:02:57.250Z,98666
2017-12-26T07:03:56.188Z,98669
2017-12-26T07:04:56.270Z,98671
2017-12-26T07:05:56.341Z,98668
2017-12-26T07:06:56.504Z,98677
2017-12-26T07:07:56.529Z,98676
2017-12-26T07:08:57.434Z,98675
2017-12-26T07:09:57.652Z,98678
2017-12-26T07:10:56.641Z,98670
2017-12-26T07:11:57.645Z,98674
2017-12-26T07:12:56.785Z,98679
2017-12-26T07:13:56.913Z,98673
2017-12-26T07:14:57.955Z,98683
2017-12-26T07:15:57.986Z,98669
2017-12-26T07:16:56.978Z,98678
2017-12-26T07:17:57.074Z,98685
2017-12-26T07:18:58.141Z,98678
2017-12-26T07:19:57.185Z,98684
2017-12-26T07:20:57.227Z,98673
2017-12-26T07:21:58.216Z,98676
2017-12-26T07:22:57.212Z,98682
2017-12-26T07:23:57.279Z,98672
2017-12-26T07:24:58.471Z,98680
2017-12-26T07:25:58.494Z,98674
2017-12-26T07:26:57.484Z,98680
2017-12-26T07:27:57.486Z,98682
2017-12-26T07:28:57.627Z,98687
2017-12-26T07:29:57.617Z,98689
2017-12-26T07:30:58.759Z,98684
2017-12-26T07:31:58.658Z,98690
2017-12-26T07:32:58.790Z,98689
2017-12-26T07:33:58.894Z,98690
2017-12-26T07:34:57.870Z,98693
2017-12-26T07:35:57.879Z,98690
2017-12-26T07:36:58.067Z,98688
2017-12-26T07:37:57.998Z,98691
2017-12-26T07:38:59.189Z,98676
2017-12-26T07:39:58.260Z,98681
2017-12-26T07:40:59.275Z,98688
2017-12-26T07:41:59.297Z,98678
2017-12-26T07:42:59.203Z,98683
2017-12-26T07:43:58.446Z,98679
2017-12-26T07:44:58.409Z,98686
2017-12-26T07:45:58.518Z,98676
2017-12-26T07:46:58.431Z,98690
2017-12-26T07:47:59.511Z,98682
2017-12-26T07:48:59.479Z,98695
2017-12-26T07:49:58.651Z,98700
2017-12-26T07:50:59.664Z,98695
2017-12-26T07:51:58.633Z,98697
2017-12-26T07:52:58.656Z,98694
2017-12-26T07:53:59.777Z,98699
2017-12-26T07:54:58.736Z,98690
2017-12-26T07:55:59.826Z,98699
2017-12-26T07:56:58.843Z,98698
2017-12-26T07:58:00.023Z,98700
2017-12-26T07:58:59.077Z,98711
2017-12-26T08:00:00.114Z,98708
2017-12-26T08:00:59.231Z,98708
2017-12-26T08:02:00.086Z,98711
2017-12-26T08:02:59.298Z,98713
2017-12-26T08:03:59.276Z,98720
2017-12-26T08:04:59.476Z,98727
2017-12-26T08:06:00.391Z,98715
2017-12-26T08:07:00.472Z,98730
2017-12-26T08:08:00.579Z,98718
2017-12-26T08:09:00.668Z,98727
2017-12-26T08:10:00.744Z,98729
2017-12-26T08:11:00.865Z,98732
2017-12-26T08:12:00.877Z,98728
2017-12-26T08:13:00.891Z,98729
2017-12-26T08:13:59.954Z,98728
2017-12-26T08:15:00.845Z,98725
2017-12-26T08:16:00.986Z,98724
2017-12-26T08:17:00.068Z,98729
2017-12-26T08:17:59.966Z,98730
2017-12-26T08:19:01.094Z,98731
2017-12-26T08:20:01.182Z,98735
2017-12-26T08:21:00.171Z,98735
2017-12-26T08:22:01.291Z,98739
2017-12-26T08:23:00.243Z,98739
2017-12-26T08:24:00.314Z,98748
2017-12-26T08:25:00.475Z,98742
2017-12-26T08:26:00.566Z,98746
2017-12-26T08:27:00.536Z,98756
2017-12-26T08:28:00.526Z,98749
2017-12-26T08:29:00.624Z,98749
2017-12-26T08:30:01.784Z,98745
2017-12-26T08:31:00.770Z,98752
2017-12-26T08:32:00.862Z,98744
2017-12-26T08:33:00.810Z,98748
2017-12-26T08:34:00.997Z,98756
2017-12-26T08:35:00.937Z,98763
2017-12-26T08:36:00.977Z,98763
2017-12-26T08:37:01.181Z,98754
2017-12-26T08:38:01.084Z,98758
2017-12-26T08:39:01.202Z,98764
2017-12-26T08:40:01.179Z,98763
2017-12-26T08:41:01.294Z,98763
2017-12-26T08:42:02.410Z,98751
2017-12-26T08:43:01.383Z,98754
2017-12-26T08:44:02.492Z,98762
2017-12-26T08:45:02.585Z,98766
2017-12-26T08:46:01.577Z,98768
2017-12-26T08:47:02.592Z,98764
2017-12-26T08:48:01.636Z,98777
2017-12-26T08:49:02.712Z,98764
2017-12-26T08:50:02.723Z,98775
2017-12-26T08:51:02.736Z,98762
2017-12-26T08:52:02.814Z,98770
2017-12-26T08:53:01.774Z,98774
2017-12-26T08:54:01.933Z,98778
2017-12-26T08:55:02.880Z,98777
2017-12-26T08:56:02.956Z,98779
2017-12-26T08:57:02.119Z,98767
2017-12-26T08:58:03.154Z,98775
2017-12-26T08:59:03.078Z,98769
2017-12-26T09:00:03.269Z,98770
2017-12-26T09:01:02.295Z,98773
2017-12-26T09:02:02.399Z,98784
2017-12-26T09:03:03.367Z,98782
2017-12-26T09:04:02.440Z,98786
2017-12-26T09:05:02.543Z,98784
2017-12-26T09:06:02.486Z,98789
2017-12-26T09:07:02.473Z,98790
2017-12-26T09:08:02.476Z,98785
2017-12-26T09:09:03.639Z,98796
2017-12-26T09:10:03.601Z,98792
2017-12-26T09:11:02.691Z,98799
2017-12-26T09:12:03.680Z,98792
2017-12-26T09:13:02.778Z,98791
2017-12-26T09:14:02.832Z,98809
2017-12-26T09:15:02.942Z,98807
2017-12-26T09:16:03.047Z,98815
2017-12-26T09:17:03.965Z,98816
2017-12-26T09:18:03.043Z,98811
2017-12-26T09:19:02.963Z,98815
2017-12-26T09:20:03.135Z,98804
2017-12-26T09:21:04.057Z,98804
2017-12-26T09:22:04.240Z,98811
2017-12-26T09:23:04.284Z,98812
2017-12-26T09:24:04.366Z,98815
2017-12-26T09:25:03.394Z,98813
2017-12-26T09:26:03.453Z,98814
2017-12-26T09:27:03.563Z,98808
2017-12-26T09:28:03.591Z,98819
2017-12-26T09:29:03.499Z,98824
2017-12-26T09:30:04.572Z,98823
2017-12-26T09:31:04.489Z,98821
2017-12-26T09:32:04.602Z,98814
2017-12-26T09:33:03.831Z,98828
2017-12-26T09:34:03.867Z,98813
2017-12-26T09:35:03.932Z,98823
2017-12-26T09:36:04.899Z,98811
2017-12-26T09:37:04.780Z,98812
2017-12-26T09:38:03.896Z,98819
2017-12-26T09:39:04.077Z,98815
2017-12-26T09:40:04.059Z,98819
2017-12-26T09:41:04.156Z,98814
2017-12-26T09:42:04.284Z,98807
2017-12-26T09:43:04.352Z,98803
2017-12-26T09:44:05.361Z,98795
2017-12-26T09:45:05.385Z,98804
2017-12-26T09:46:04.504Z,98808
2017-12-26T09:47:04.541Z,98805
2017-12-26T09:48:04.458Z,98815
2017-12-26T09:49:05.605Z,98820
2017-12-26T09:50:04.546Z,98813
2017-12-26T09:51:04.610Z,98820
2017-12-26T09:52:04.647Z,98815
2017-12-26T09:53:04.684Z,98817
2017-12-26T09:54:05.802Z,98818
2017-12-26T09:55:04.860Z,98816
2017-12-26T09:56:04.732Z,98818
2017-12-26T09:57:05.792Z,98813
2017-12-26T09:58:05.028Z,98818
2017-12-26T09:59:05.014Z,98820
2017-12-26T10:00:05.035Z,98818
2017-12-26T10:01:06.097Z,98816
2017-12-26T10:02:05.062Z,98819
2017-12-26T10:03:06.135Z,98810
2017-12-26T10:04:06.176Z,98809
2017-12-26T10:05:05.201Z,98804
2017-12-26T10:06:05.146Z,98803
2017-12-26T10:07:06.242Z,98804
2017-12-26T10:08:06.279Z,98795
2017-12-26T10:09:06.311Z,98791
2017-12-26T10:10:06.318Z,98790
2017-12-26T10:11:05.318Z,98789
2017-12-26T10:12:05.399Z,98794
2017-12-26T10:13:05.454Z,98799
2017-12-26T10:14:06.492Z,98788
2017-12-26T10:15:05.701Z,98792
2017-12-26T10:16:05.745Z,98791
2017-12-26T10:17:05.632Z,98796
2017-12-26T10:18:06.718Z,98799
2017-12-26T10:19:05.690Z,98798
2017-12-26T10:20:06.742Z,98805
2017-12-26T10:21:05.816Z,98797
2017-12-26T10:22:06.808Z,98804
2017-12-26T10:23:06.932Z,98810
2017-12-26T10:24:05.950Z,98798
2017-12-26T10:25:05.941Z,98802
2017-12-26T10:26:07.072Z,98800
2017-12-26T10:27:07.136Z,98809
2017-12-26T10:28:07.168Z,98809
2017-12-26T10:29:07.259Z,98803
2017-12-26T10:30:07.300Z,98802
2017-12-26T10:31:06.452Z,98804
2017-12-26T10:32:07.424Z,98802
2017-12-26T10:33:06.552Z,98802
2017-12-26T10:34:07.607Z,98809
2017-12-26T10:35:07.633Z,98814
2017-12-26T10:36:07.650Z,98808
2017-12-26T10:37:07.648Z,98805
2017-12-26T10:38:07.710Z,98811
2017-12-26T10:39:06.785Z,98813
2017-12-26T10:40:06.825Z,98810
2017-12-26T10:41:06.819Z,98810
2017-12-26T10:42:06.875Z,98821
2017-12-26T10:43:07.838Z,98817
2017-12-26T10:44:06.895Z,98819
2017-12-26T10:45:07.967Z,98813
2017-12-26T10:46:07.048Z,98808
2017-12-26T10:47:08.089Z,98817
2017-12-26T10:48:08.124Z,98813
2017-12-26T10:49:07.241Z,98809
2017-12-26T10:50:07.319Z,98821
2017-12-26T10:51:07.389Z,98822
2017-12-26T10:52:08.447Z,98819
2017-12-26T10:53:08.525Z,98824
2017-12-26T10:54:08.546Z,98824
2017-12-26T10:55:08.650Z,98836
2017-12-26T10:56:08.680Z,98829
2017-12-26T10:57:08.779Z,98831
2017-12-26T10:58:08.759Z,98826
2017-12-26T10:59:07.858Z,98819
2017-12-26T11:00:08.873Z,98819
2017-12-26T11:01:08.936Z,98830
2017-12-26T11:02:08.875Z,98829
2017-12-26T11:03:08.932Z,98833
2017-12-26T11:04:08.009Z,98827
2017-12-26T11:05:08.035Z,98828
2017-12-26T11:06:09.896Z,98831
2017-12-26T11:07:09.164Z,98833
2017-12-26T11:08:08.212Z,98827
2017-12-26T11:09:09.265Z,98828
2017-12-26T11:10:10.148Z,98830
2017-12-26T11:11:09.346Z,98827
2017-12-26T11:12:08.427Z,98831
2017-12-26T11:13:08.438Z,98830
2017-12-26T11:14:08.456Z,98821
2017-12-26T11:15:09.527Z,98827
2017-12-26T11:16:09.538Z,98827
2017-12-26T11:17:08.639Z,98820
2017-12-26T11:18:09.689Z,98820
2017-12-26T11:19:08.745Z,98823
2017-12-26T11:20:09.820Z,98825
2017-12-26T11:21:09.840Z,98829
2017-12-26T11:22:09.866Z,98828
2017-12-26T11:23:08.940Z,98825
2017-12-26T11:24:08.993Z,98817
2017-12-26T11:25:09.052Z,98824
2017-12-26T11:26:09.103Z,98827
2017-12-26T11:27:10.075Z,98823
2017-12-26T11:28:09.094Z,98824
2017-12-26T11:29:10.174Z,98819
2017-12-26T11:30:09.284Z,98827
2017-12-26T11:31:09.392Z,98822
2017-12-26T11:32:09.496Z,98815
2017-12-26T11:33:09.487Z,98822
2017-12-26T11:34:09.565Z,98823
2017-12-26T11:35:10.617Z,98822
2017-12-26T11:36:10.629Z,98822
2017-12-26T11:37:09.699Z,98820
2017-12-26T11:38:09.719Z,98815
2017-12-26T11:39:10.711Z,98810
2017-12-26T11:40:10.732Z,98818
2017-12-26T11:41:09.833Z,98814
2017-12-26T11:42:10.899Z,98815
2017-12-26T11:43:09.975Z,98819
2017-12-26T11:44:10.073Z,98812
2017-12-26T11:45:10.062Z,98806
2017-12-26T11:46:10.072Z,98802
2017-12-26T11:47:11.101Z,98814
2017-12-26T11:48:10.147Z,98811
2017-12-26T11:49:11.226Z,98811
2017-12-26T11:50:10.240Z,98813
2017-12-26T11:51:11.290Z,98808
2017-12-26T11:52:11.312Z,98815
2017-12-26T11:53:10.378Z,98820
2017-12-26T11:54:10.482Z,98825
2017-12-26T11:55:10.475Z,98827
2017-12-26T11:56:11.472Z,98826
2017-12-26T11:57:11.572Z,98825
2017-12-26T11:58:10.606Z,98816
2017-12-26T11:59:11.651Z,98817
2017-12-26T12:00:11.745Z,98822
2017-12-26T12:01:11.791Z,98819
2017-12-26T12:02:10.870Z,98827
2017-12-26T12:03:10.991Z,98823
2017-12-26T12:04:11.051Z,98823
2017-12-26T12:05:12.054Z,98829
2017-12-26T12:06:12.155Z,98823
2017-12-26T12:07:11.179Z,98826
2017-12-26T12:08:12.178Z,98837
2017-12-26T12:09:11.235Z,98832
2017-12-26T12:10:11.307Z,98835
2017-12-26T12:11:12.341Z,98837
2017-12-26T12:12:11.389Z,98842
2017-12-26T12:13:12.425Z,98842
2017-12-26T12:14:11.480Z,98834
2017-12-26T12:15:12.512Z,98848
2017-12-26T12:16:11.619Z,98848
2017-12-26T12:17:11.667Z,98846
2017-12-26T12:18:11.707Z,98843
2017-12-26T12:19:12.658Z,98840
2017-12-26T12:20:12.720Z,98844
2017-12-26T12:21:12.719Z,98842
2017-12-26T12:22:12.807Z,98844
2017-12-26T12:23:12.917Z,98834
2017-12-26T12:24:11.982Z,98844
2017-12-26T12:25:13.045Z,98845
2017-12-26T12:26:12.102Z,98847
2017-12-26T12:27:12.185Z,98846
2017-12-26T12:28:12.254Z,98848
2017-12-26T12:29:12.259Z,98841
2017-12-26T12:30:12.250Z,98836
2017-12-26T12:31:13.321Z,98841
2017-12-26T12:32:13.335Z,98837
2017-12-26T12:33:13.342Z,98839
2017-12-26T12:34:12.377Z,98822
2017-12-26T12:35:13.405Z,98845
2017-12-26T12:36:13.413Z,98831
2017-12-26T12:37:12.536Z,98830
2017-12-26T12:38:13.582Z,98831
2017-12-26T12:39:12.701Z,98828
2017-12-26T12:40:13.727Z,98823
2017-12-26T12:41:12.768Z,98822
2017-12-26T12:42:12.780Z,98830
2017-12-26T12:43:12.826Z,98817
2017-12-26T12:44:12.810Z,98821
2017-12-26T12:45:13.921Z,98824
2017-12-26T12:46:12.951Z,98825
2017-12-26T12:47:13.011Z,98824
2017-12-26T12:48:14.001Z,98823
2017-12-26T12:49:14.128Z,98825
2017-12-26T12:50:14.167Z,98814
2017-12-26T12:51:14.210Z,98827
2017-12-26T12:52:13.320Z,98817
2017-12-26T12:53:14.391Z,98828
2017-12-26T12:54:14.416Z,98820